sensor_id;sensor_type;location;lat;lon;timestamp;temperature;humidity
13659;DHT22;6902;52.158;11.574;2022-10-28T00:02:16;15.60;99.90
13659;DHT22;6902;52.158;11.574;2022-10-28T00:04:43;15.70;99.90
13659;DHT22;6902;52.158;11.574;2022-10-28T00:07:10;15.50;99.90
13659;DHT22;6902;52.158;11.574;2022-10-28T00:09:37;15.50;99.90
13659;DHT22;6902;52.158;11.574;2022-10-28T00:12:06;15.50;99.90
13659;DHT22;6902;52.158;11.574;2022-10-28T00:14:33;15.50;99.90
13659;DHT22;6902;52.158;11.574;2022-10-28T00:17:00;15.50;99.90
13659;DHT22;6902;52.158;11.574;2022-10-28T00:19:27;15.50;99.90
13659;DHT22;6902;52.158;11.574;2022-10-28T00:21:54;15.40;99.90
13659;DHT22;6902;52.158;11.574;2022-10-28T00:24:21;15.40;99.90
13659;DHT22;6902;52.158;11.574;2022-10-28T00:26:48;15.40;99.90
13659;DHT22;6902;52.158;11.574;2022-10-28T00:29:18;15.40;99.90
13659;DHT22;6902;52.158;11.574;2022-10-28T00:31:46;15.50;99.90
13659;DHT22;6902;52.158;11.574;2022-10-28T00:34:15;15.30;99.90
13659;DHT22;6902;52.158;11.574;2022-10-28T00:36:44;15.30;99.90
13659;DHT22;6902;52.158;11.574;2022-10-28T00:39:12;15.20;99.90
13659;DHT22;6902;52.158;11.574;2022-10-28T00:41:42;15.20;99.90
13659;DHT22;6902;52.158;11.574;2022-10-28T00:47:34;15.30;99.90
13659;DHT22;6902;52.158;11.574;2022-10-28T00:50:11;15.30;99.90
13659;DHT22;6902;52.158;11.574;2022-10-28T00:52:39;15.20;99.90
13659;DHT22;6902;52.158;11.574;2022-10-28T00:55:07;15.20;99.90
13659;DHT22;6902;52.158;11.574;2022-10-28T00:57:36;15.20;99.90
13659;DHT22;6902;52.158;11.574;2022-10-28T01:00:05;15.30;99.90
13659;DHT22;6902;52.158;11.574;2022-10-28T01:02:41;15.20;99.90
13659;DHT22;6902;52.158;11.574;2022-10-28T01:05:10;15.20;99.90
13659;DHT22;6902;52.158;11.574;2022-10-28T01:07:37;15.30;99.90
13659;DHT22;6902;52.158;11.574;2022-10-28T01:10:06;15.20;99.90
13659;DHT22;6902;52.158;11.574;2022-10-28T01:12:40;15.10;99.90
13659;DHT22;6902;52.158;11.574;2022-10-28T01:15:17;15.20;99.90
13659;DHT22;6902;52.158;11.574;2022-10-28T01:17:55;15.10;99.90
13659;DHT22;6902;52.158;11.574;2022-10-28T01:21:09;15.30;99.90
13659;DHT22;6902;52.158;11.574;2022-10-28T01:23:49;15.20;99.90
13659;DHT22;6902;52.158;11.574;2022-10-28T01:26:42;15.10;99.90
13659;DHT22;6902;52.158;11.574;2022-10-28T01:29:44;15.10;99.90
13659;DHT22;6902;52.158;11.574;2022-10-28T01:32:20;15.10;99.90
13659;DHT22;6902;52.158;11.574;2022-10-28T01:34:58;15.10;99.90
13659;DHT22;6902;52.158;11.574;2022-10-28T01:37:30;15.00;99.90
13659;DHT22;6902;52.158;11.574;2022-10-28T01:40:03;15.00;99.90
13659;DHT22;6902;52.158;11.574;2022-10-28T01:42:37;15.10;99.90
13659;DHT22;6902;52.158;11.574;2022-10-28T01:45:12;15.10;99.90
13659;DHT22;6902;52.158;11.574;2022-10-28T03:13:54;13.90;99.90
13659;DHT22;6902;52.158;11.574;2022-10-28T03:16:22;13.70;99.90
13659;DHT22;6902;52.158;11.574;2022-10-28T03:18:48;13.60;99.90
13659;DHT22;6902;52.158;11.574;2022-10-28T03:21:16;13.60;99.90
13659;DHT22;6902;52.158;11.574;2022-10-28T03:23:43;13.70;99.90
13659;DHT22;6902;52.158;11.574;2022-10-28T03:26:11;13.60;99.90
13659;DHT22;6902;52.158;11.574;2022-10-28T03:28:38;13.70;99.90
13659;DHT22;6902;52.158;11.574;2022-10-28T03:31:05;13.70;99.90
13659;DHT22;6902;52.158;11.574;2022-10-28T03:33:33;13.70;99.90
13659;DHT22;6902;52.158;11.574;2022-10-28T03:35:59;13.60;99.90
13659;DHT22;6902;52.158;11.574;2022-10-28T03:38:26;13.70;99.90
13659;DHT22;6902;52.158;11.574;2022-10-28T03:40:54;13.70;99.90
13659;DHT22;6902;52.158;11.574;2022-10-28T03:43:22;13.60;99.90
13659;DHT22;6902;52.158;11.574;2022-10-28T03:45:49;13.50;99.90
13659;DHT22;6902;52.158;11.574;2022-10-28T03:48:16;13.60;99.90
13659;DHT22;6902;52.158;11.574;2022-10-28T03:50:43;13.70;99.90
13659;DHT22;6902;52.158;11.574;2022-10-28T03:53:10;13.70;99.90
13659;DHT22;6902;52.158;11.574;2022-10-28T03:55:37;13.70;99.90
13659;DHT22;6902;52.158;11.574;2022-10-28T03:58:04;13.80;99.90
13659;DHT22;6902;52.158;11.574;2022-10-28T04:00:33;13.80;99.90
13659;DHT22;6902;52.158;11.574;2022-10-28T04:03:00;13.80;99.90
13659;DHT22;6902;52.158;11.574;2022-10-28T04:05:27;13.70;99.90
13659;DHT22;6902;52.158;11.574;2022-10-28T04:07:54;13.70;99.90
13659;DHT22;6902;52.158;11.574;2022-10-28T04:10:21;13.80;99.90
13659;DHT22;6902;52.158;11.574;2022-10-28T04:12:48;13.70;99.90
13659;DHT22;6902;52.158;11.574;2022-10-28T04:15:15;13.70;99.90
13659;DHT22;6902;52.158;11.574;2022-10-28T04:17:44;13.80;99.90
13659;DHT22;6902;52.158;11.574;2022-10-28T04:20:11;13.70;99.90
13659;DHT22;6902;52.158;11.574;2022-10-28T04:22:38;13.90;99.90
13659;DHT22;6902;52.158;11.574;2022-10-28T04:25:05;13.80;99.90
13659;DHT22;6902;52.158;11.574;2022-10-28T04:27:33;13.90;99.90
13659;DHT22;6902;52.158;11.574;2022-10-28T04:30:00;13.90;99.90
13659;DHT22;6902;52.158;11.574;2022-10-28T04:32:27;13.90;99.90
13659;DHT22;6902;52.158;11.574;2022-10-28T04:34:55;14.00;99.90
13659;DHT22;6902;52.158;11.574;2022-10-28T04:37:23;14.20;99.90
13659;DHT22;6902;52.158;11.574;2022-10-28T04:39:50;14.10;99.90
13659;DHT22;6902;52.158;11.574;2022-10-28T04:42:17;14.00;99.90
13659;DHT22;6902;52.158;11.574;2022-10-28T04:44:44;14.10;99.90
13659;DHT22;6902;52.158;11.574;2022-10-28T04:47:11;14.10;99.90
13659;DHT22;6902;52.158;11.574;2022-10-28T04:49:38;14.20;99.90
13659;DHT22;6902;52.158;11.574;2022-10-28T04:52:06;14.20;99.90
13659;DHT22;6902;52.158;11.574;2022-10-28T04:54:33;14.20;99.90
13659;DHT22;6902;52.158;11.574;2022-10-28T04:57:00;14.20;99.90
13659;DHT22;6902;52.158;11.574;2022-10-28T04:59:28;14.30;99.90
13659;DHT22;6902;52.158;11.574;2022-10-28T05:01:55;14.30;99.90
13659;DHT22;6902;52.158;11.574;2022-10-28T05:04:22;14.30;99.90
13659;DHT22;6902;52.158;11.574;2022-10-28T05:06:49;14.30;99.90
13659;DHT22;6902;52.158;11.574;2022-10-28T05:09:17;14.30;99.90
13659;DHT22;6902;52.158;11.574;2022-10-28T05:11:44;14.30;99.90
13659;DHT22;6902;52.158;11.574;2022-10-28T05:14:11;14.40;99.90
13659;DHT22;6902;52.158;11.574;2022-10-28T05:16:38;14.30;99.90
13659;DHT22;6902;52.158;11.574;2022-10-28T05:19:06;14.30;99.90
13659;DHT22;6902;52.158;11.574;2022-10-28T05:21:32;14.40;99.90
13659;DHT22;6902;52.158;11.574;2022-10-28T05:23:59;14.40;99.90
13659;DHT22;6902;52.158;11.574;2022-10-28T05:26:28;14.40;99.90
13659;DHT22;6902;52.158;11.574;2022-10-28T05:28:55;14.40;99.90
13659;DHT22;6902;52.158;11.574;2022-10-28T05:31:22;14.40;99.90
13659;DHT22;6902;52.158;11.574;2022-10-28T05:33:49;14.40;99.90
13659;DHT22;6902;52.158;11.574;2022-10-28T05:36:16;14.40;99.90
13659;DHT22;6902;52.158;11.574;2022-10-28T05:38:43;14.30;99.90
13659;DHT22;6902;52.158;11.574;2022-10-28T05:41:10;14.30;99.90
13659;DHT22;6902;52.158;11.574;2022-10-28T05:43:38;14.30;99.90
13659;DHT22;6902;52.158;11.574;2022-10-28T05:46:06;14.30;99.90
13659;DHT22;6902;52.158;11.574;2022-10-28T05:48:33;14.40;99.90
13659;DHT22;6902;52.158;11.574;2022-10-28T05:51:00;14.40;99.90
13659;DHT22;6902;52.158;11.574;2022-10-28T05:53:27;14.30;99.90
13659;DHT22;6902;52.158;11.574;2022-10-28T05:55:54;14.50;99.90
13659;DHT22;6902;52.158;11.574;2022-10-28T05:58:21;14.30;99.90
13659;DHT22;6902;52.158;11.574;2022-10-28T06:00:50;14.30;99.90
13659;DHT22;6902;52.158;11.574;2022-10-28T06:03:17;14.30;99.90
13659;DHT22;6902;52.158;11.574;2022-10-28T06:05:44;14.30;99.90
13659;DHT22;6902;52.158;11.574;2022-10-28T06:08:12;14.30;99.90
13659;DHT22;6902;52.158;11.574;2022-10-28T06:10:40;14.30;99.90
13659;DHT22;6902;52.158;11.574;2022-10-28T06:13:07;14.30;99.90
13659;DHT22;6902;52.158;11.574;2022-10-28T06:15:34;14.40;99.90
13659;DHT22;6902;52.158;11.574;2022-10-28T06:18:03;14.30;99.90
13659;DHT22;6902;52.158;11.574;2022-10-28T06:20:31;14.30;99.90
13659;DHT22;6902;52.158;11.574;2022-10-28T06:22:58;14.40;99.90
13659;DHT22;6902;52.158;11.574;2022-10-28T06:25:25;14.40;99.90
13659;DHT22;6902;52.158;11.574;2022-10-28T06:27:53;14.40;99.90
13659;DHT22;6902;52.158;11.574;2022-10-28T06:30:20;14.40;99.90
13659;DHT22;6902;52.158;11.574;2022-10-28T06:32:48;14.50;99.90
13659;DHT22;6902;52.158;11.574;2022-10-28T06:35:16;14.50;99.90
13659;DHT22;6902;52.158;11.574;2022-10-28T06:37:43;14.50;99.90
13659;DHT22;6902;52.158;11.574;2022-10-28T06:40:10;14.60;99.90
13659;DHT22;6902;52.158;11.574;2022-10-28T06:42:38;14.60;99.90
13659;DHT22;6902;52.158;11.574;2022-10-28T06:45:06;14.60;99.90
13659;DHT22;6902;52.158;11.574;2022-10-28T06:47:33;14.60;99.90
13659;DHT22;6902;52.158;11.574;2022-10-28T06:50:00;14.60;99.90
13659;DHT22;6902;52.158;11.574;2022-10-28T06:52:29;14.70;99.90
13659;DHT22;6902;52.158;11.574;2022-10-28T06:54:56;14.60;99.90
13659;DHT22;6902;52.158;11.574;2022-10-28T06:57:23;14.70;99.90
13659;DHT22;6902;52.158;11.574;2022-10-28T06:59:50;14.80;99.90
13659;DHT22;6902;52.158;11.574;2022-10-28T07:02:17;14.90;99.90
13659;DHT22;6902;52.158;11.574;2022-10-28T07:04:44;14.80;99.90
13659;DHT22;6902;52.158;11.574;2022-10-28T07:07:11;14.80;99.90
13659;DHT22;6902;52.158;11.574;2022-10-28T07:09:42;14.90;99.90
13659;DHT22;6902;52.158;11.574;2022-10-28T07:12:10;14.90;99.90
13659;DHT22;6902;52.158;11.574;2022-10-28T07:14:37;14.90;99.90
13659;DHT22;6902;52.158;11.574;2022-10-28T07:17:04;15.00;99.90
13659;DHT22;6902;52.158;11.574;2022-10-28T07:19:31;15.10;99.90
13659;DHT22;6902;52.158;11.574;2022-10-28T07:21:58;15.10;99.90
13659;DHT22;6902;52.158;11.574;2022-10-28T07:24:25;15.20;99.90
13659;DHT22;6902;52.158;11.574;2022-10-28T07:26:54;15.30;99.90
13659;DHT22;6902;52.158;11.574;2022-10-28T07:29:21;15.40;99.90
13659;DHT22;6902;52.158;11.574;2022-10-28T07:31:48;15.50;99.90
13659;DHT22;6902;52.158;11.574;2022-10-28T07:34:15;15.50;99.90
13659;DHT22;6902;52.158;11.574;2022-10-28T07:36:43;15.60;99.90
13659;DHT22;6902;52.158;11.574;2022-10-28T07:39:10;15.60;99.90
13659;DHT22;6902;52.158;11.574;2022-10-28T07:41:37;15.60;99.90
13659;DHT22;6902;52.158;11.574;2022-10-28T07:44:06;15.60;99.90
13659;DHT22;6902;52.158;11.574;2022-10-28T07:46:33;15.70;99.90
13659;DHT22;6902;52.158;11.574;2022-10-28T07:49:00;15.80;99.90
13659;DHT22;6902;52.158;11.574;2022-10-28T07:51:27;15.70;99.90
13659;DHT22;6902;52.158;11.574;2022-10-28T07:53:55;15.70;99.90
13659;DHT22;6902;52.158;11.574;2022-10-28T07:56:23;15.80;99.90
13659;DHT22;6902;52.158;11.574;2022-10-28T07:58:50;15.90;99.90
13659;DHT22;6902;52.158;11.574;2022-10-28T08:01:19;16.10;99.90
13659;DHT22;6902;52.158;11.574;2022-10-28T08:03:47;16.30;99.90
13659;DHT22;6902;52.158;11.574;2022-10-28T08:06:15;16.50;99.90
13659;DHT22;6902;52.158;11.574;2022-10-28T08:08:44;16.60;99.90
13659;DHT22;6902;52.158;11.574;2022-10-28T08:11:13;16.70;99.90
13659;DHT22;6902;52.158;11.574;2022-10-28T08:13:41;16.90;99.90
13659;DHT22;6902;52.158;11.574;2022-10-28T08:16:08;17.20;99.90
13659;DHT22;6902;52.158;11.574;2022-10-28T08:18:37;17.30;99.90
13659;DHT22;6902;52.158;11.574;2022-10-28T08:21:07;17.60;99.90
13659;DHT22;6902;52.158;11.574;2022-10-28T08:23:34;17.80;99.90
13659;DHT22;6902;52.158;11.574;2022-10-28T08:26:03;17.90;99.90
13659;DHT22;6902;52.158;11.574;2022-10-28T09:44:17;18.10;99.90
13659;DHT22;6902;52.158;11.574;2022-10-28T09:46:47;20.40;99.90
13659;DHT22;6902;52.158;11.574;2022-10-28T09:49:19;20.50;99.90
13659;DHT22;6902;52.158;11.574;2022-10-28T09:51:51;20.60;99.90
13659;DHT22;6902;52.158;11.574;2022-10-28T10:36:51;22.70;99.90
13659;DHT22;6902;52.158;11.574;2022-10-28T10:39:22;22.90;99.90
13659;DHT22;6902;52.158;11.574;2022-10-28T10:47:15;22.90;99.90
13659;DHT22;6902;52.158;11.574;2022-10-28T10:49:44;22.70;99.90
13659;DHT22;6902;52.158;11.574;2022-10-28T10:52:17;22.60;99.90
13659;DHT22;6902;52.158;11.574;2022-10-28T10:54:56;22.40;99.90
13659;DHT22;6902;52.158;11.574;2022-10-28T10:57:24;22.30;99.90
13659;DHT22;6902;52.158;11.574;2022-10-28T10:59:53;22.20;99.90
13659;DHT22;6902;52.158;11.574;2022-10-28T11:02:23;22.10;99.90
13659;DHT22;6902;52.158;11.574;2022-10-28T11:04:56;22.00;99.90
13659;DHT22;6902;52.158;11.574;2022-10-28T11:07:25;21.90;99.90
13659;DHT22;6902;52.158;11.574;2022-10-28T11:09:55;22.00;99.90
13659;DHT22;6902;52.158;11.574;2022-10-28T11:12:26;22.00;99.90
13659;DHT22;6902;52.158;11.574;2022-10-28T11:14:55;22.20;99.90
13659;DHT22;6902;52.158;11.574;2022-10-28T11:17:25;22.40;99.90
13659;DHT22;6902;52.158;11.574;2022-10-28T11:19:55;22.60;99.90
13659;DHT22;6902;52.158;11.574;2022-10-28T11:22:38;22.70;99.90
13659;DHT22;6902;52.158;11.574;2022-10-28T11:25:34;22.70;99.90
13659;DHT22;6902;52.158;11.574;2022-10-28T11:28:20;22.70;99.90
13659;DHT22;6902;52.158;11.574;2022-10-28T11:30:59;22.60;99.90
13659;DHT22;6902;52.158;11.574;2022-10-28T11:36:10;22.60;99.90
13659;DHT22;6902;52.158;11.574;2022-10-28T12:20:10;23.00;99.90
13659;DHT22;6902;52.158;11.574;2022-10-28T12:30:16;23.50;99.90
13659;DHT22;6902;52.158;11.574;2022-10-28T12:37:47;23.60;99.90
13659;DHT22;6902;52.158;11.574;2022-10-28T12:40:17;23.80;99.90
13659;DHT22;6902;52.158;11.574;2022-10-28T12:42:50;23.90;99.90
13659;DHT22;6902;52.158;11.574;2022-10-28T12:45:20;24.00;99.90
13659;DHT22;6902;52.158;11.574;2022-10-28T17:47:51;24.10;99.90
13659;DHT22;6902;52.158;11.574;2022-10-28T17:50:18;19.60;99.90
13659;DHT22;6902;52.158;11.574;2022-10-28T17:52:47;19.30;99.90
13659;DHT22;6902;52.158;11.574;2022-10-28T17:55:14;19.40;99.90
13659;DHT22;6902;52.158;11.574;2022-10-28T17:57:41;19.30;99.90
13659;DHT22;6902;52.158;11.574;2022-10-28T18:00:10;19.20;99.90
13659;DHT22;6902;52.158;11.574;2022-10-28T18:02:38;19.20;99.90
13659;DHT22;6902;52.158;11.574;2022-10-28T18:05:05;19.30;99.90
13659;DHT22;6902;52.158;11.574;2022-10-28T18:07:33;19.20;99.90
13659;DHT22;6902;52.158;11.574;2022-10-28T18:10:01;19.20;99.90
13659;DHT22;6902;52.158;11.574;2022-10-28T18:12:28;19.10;99.90
13659;DHT22;6902;52.158;11.574;2022-10-28T18:14:56;19.20;99.90
13659;DHT22;6902;52.158;11.574;2022-10-28T18:17:23;19.00;99.90
13659;DHT22;6902;52.158;11.574;2022-10-28T18:19:50;19.00;99.90
13659;DHT22;6902;52.158;11.574;2022-10-28T18:22:17;19.00;99.90
13659;DHT22;6902;52.158;11.574;2022-10-28T18:24:44;18.90;99.90
13659;DHT22;6902;52.158;11.574;2022-10-28T18:27:13;18.90;99.90
13659;DHT22;6902;52.158;11.574;2022-10-28T18:29:41;18.90;99.90
13659;DHT22;6902;52.158;11.574;2022-10-28T18:32:09;18.80;99.90
13659;DHT22;6902;52.158;11.574;2022-10-28T18:34:37;18.80;99.90
13659;DHT22;6902;52.158;11.574;2022-10-28T18:37:04;18.80;99.90
13659;DHT22;6902;52.158;11.574;2022-10-28T18:39:33;18.80;99.90
13659;DHT22;6902;52.158;11.574;2022-10-28T18:42:00;18.80;99.90
13659;DHT22;6902;52.158;11.574;2022-10-28T18:44:30;18.80;99.90
13659;DHT22;6902;52.158;11.574;2022-10-28T18:47:00;18.80;99.90
13659;DHT22;6902;52.158;11.574;2022-10-28T18:49:27;18.80;99.90
13659;DHT22;6902;52.158;11.574;2022-10-28T18:51:55;18.80;99.90
13659;DHT22;6902;52.158;11.574;2022-10-28T18:54:24;18.70;99.90
13659;DHT22;6902;52.158;11.574;2022-10-28T18:56:51;18.70;99.90
13659;DHT22;6902;52.158;11.574;2022-10-28T19:01:47;18.70;99.90
13659;DHT22;6902;52.158;11.574;2022-10-28T19:04:14;18.60;99.90
13659;DHT22;6902;52.158;11.574;2022-10-28T19:06:42;18.60;99.90
13659;DHT22;6902;52.158;11.574;2022-10-28T19:09:09;18.60;99.90
13659;DHT22;6902;52.158;11.574;2022-10-28T19:11:36;18.60;99.90
13659;DHT22;6902;52.158;11.574;2022-10-28T19:14:04;18.50;99.90
13659;DHT22;6902;52.158;11.574;2022-10-28T19:16:33;18.50;99.90
13659;DHT22;6902;52.158;11.574;2022-10-28T19:21:31;18.50;99.90
13659;DHT22;6902;52.158;11.574;2022-10-28T19:23:58;18.40;99.90
13659;DHT22;6902;52.158;11.574;2022-10-28T19:26:28;18.50;99.90
13659;DHT22;6902;52.158;11.574;2022-10-28T19:28:56;18.50;99.90
13659;DHT22;6902;52.158;11.574;2022-10-28T19:31:25;18.50;99.90
13659;DHT22;6902;52.158;11.574;2022-10-28T19:33:53;18.40;99.90
13659;DHT22;6902;52.158;11.574;2022-10-28T19:36:23;18.40;99.90
13659;DHT22;6902;52.158;11.574;2022-10-28T19:38:51;18.40;99.90
13659;DHT22;6902;52.158;11.574;2022-10-28T19:41:20;18.40;99.90
13659;DHT22;6902;52.158;11.574;2022-10-28T19:43:50;18.40;99.90
13659;DHT22;6902;52.158;11.574;2022-10-28T19:46:19;18.30;99.90
13659;DHT22;6902;52.158;11.574;2022-10-28T19:48:48;18.30;99.90
13659;DHT22;6902;52.158;11.574;2022-10-28T19:51:17;18.40;99.90
13659;DHT22;6902;52.158;11.574;2022-10-28T19:53:47;18.30;99.90
13659;DHT22;6902;52.158;11.574;2022-10-28T19:56:15;18.40;99.90
13659;DHT22;6902;52.158;11.574;2022-10-28T19:58:43;18.40;99.90
13659;DHT22;6902;52.158;11.574;2022-10-28T20:01:10;18.40;99.90
13659;DHT22;6902;52.158;11.574;2022-10-28T20:03:39;18.40;99.90
13659;DHT22;6902;52.158;11.574;2022-10-28T20:06:07;18.40;99.90
13659;DHT22;6902;52.158;11.574;2022-10-28T20:08:36;18.40;99.90
13659;DHT22;6902;52.158;11.574;2022-10-28T20:11:07;18.40;99.90
13659;DHT22;6902;52.158;11.574;2022-10-28T20:13:35;18.40;99.90
13659;DHT22;6902;52.158;11.574;2022-10-28T20:16:04;18.40;99.90
13659;DHT22;6902;52.158;11.574;2022-10-28T20:18:32;18.40;99.90
13659;DHT22;6902;52.158;11.574;2022-10-28T20:21:04;18.40;99.90
13659;DHT22;6902;52.158;11.574;2022-10-28T20:23:32;18.30;99.90
13659;DHT22;6902;52.158;11.574;2022-10-28T20:26:00;18.30;99.90
13659;DHT22;6902;52.158;11.574;2022-10-28T20:28:29;18.20;99.90
13659;DHT22;6902;52.158;11.574;2022-10-28T20:30:58;18.20;99.90
13659;DHT22;6902;52.158;11.574;2022-10-28T20:33:26;18.20;99.90
13659;DHT22;6902;52.158;11.574;2022-10-28T20:35:54;18.10;99.90
13659;DHT22;6902;52.158;11.574;2022-10-28T20:38:21;18.10;99.90
13659;DHT22;6902;52.158;11.574;2022-10-28T20:40:50;18.10;99.90
13659;DHT22;6902;52.158;11.574;2022-10-28T20:43:18;18.10;99.90
13659;DHT22;6902;52.158;11.574;2022-10-28T20:45:52;18.10;99.90
13659;DHT22;6902;52.158;11.574;2022-10-28T20:48:19;18.10;99.90
13659;DHT22;6902;52.158;11.574;2022-10-28T20:50:51;18.10;99.90
13659;DHT22;6902;52.158;11.574;2022-10-28T20:53:19;18.10;99.90
13659;DHT22;6902;52.158;11.574;2022-10-28T20:55:49;18.10;99.90
13659;DHT22;6902;52.158;11.574;2022-10-28T20:58:17;18.10;99.90
13659;DHT22;6902;52.158;11.574;2022-10-28T21:00:44;18.00;99.90
13659;DHT22;6902;52.158;11.574;2022-10-28T21:03:13;18.00;99.90
13659;DHT22;6902;52.158;11.574;2022-10-28T21:05:41;18.00;99.90
13659;DHT22;6902;52.158;11.574;2022-10-28T21:08:08;18.00;99.90
13659;DHT22;6902;52.158;11.574;2022-10-28T21:10:36;18.00;99.90
13659;DHT22;6902;52.158;11.574;2022-10-28T21:13:04;17.90;99.90
13659;DHT22;6902;52.158;11.574;2022-10-28T21:15:33;17.90;99.90
13659;DHT22;6902;52.158;11.574;2022-10-28T21:22:58;17.70;99.90
13659;DHT22;6902;52.158;11.574;2022-10-28T21:25:25;17.60;99.90
13659;DHT22;6902;52.158;11.574;2022-10-28T21:27:55;17.60;99.90
13659;DHT22;6902;52.158;11.574;2022-10-28T21:30:22;17.60;99.90
13659;DHT22;6902;52.158;11.574;2022-10-28T21:32:49;17.50;99.90
13659;DHT22;6902;52.158;11.574;2022-10-28T21:35:16;17.40;99.90
13659;DHT22;6902;52.158;11.574;2022-10-28T21:37:45;17.30;99.90
13659;DHT22;6902;52.158;11.574;2022-10-28T21:40:12;17.50;99.90
13659;DHT22;6902;52.158;11.574;2022-10-28T21:42:39;17.30;99.90
13659;DHT22;6902;52.158;11.574;2022-10-28T21:45:07;17.30;99.90
13659;DHT22;6902;52.158;11.574;2022-10-28T21:47:34;17.30;99.90
13659;DHT22;6902;52.158;11.574;2022-10-28T21:50:01;17.20;99.90
13659;DHT22;6902;52.158;11.574;2022-10-28T21:52:28;17.30;99.90
13659;DHT22;6902;52.158;11.574;2022-10-28T21:54:56;17.20;99.90
13659;DHT22;6902;52.158;11.574;2022-10-28T21:57:27;17.20;99.90
13659;DHT22;6902;52.158;11.574;2022-10-28T21:59:54;17.20;99.90
13659;DHT22;6902;52.158;11.574;2022-10-28T22:02:22;17.10;99.90
13659;DHT22;6902;52.158;11.574;2022-10-28T22:04:49;17.10;99.90
13659;DHT22;6902;52.158;11.574;2022-10-28T22:07:16;17.10;99.90
13659;DHT22;6902;52.158;11.574;2022-10-28T22:09:43;17.00;99.90
13659;DHT22;6902;52.158;11.574;2022-10-28T22:12:11;17.00;99.90
13659;DHT22;6902;52.158;11.574;2022-10-28T22:14:38;16.90;99.90
13659;DHT22;6902;52.158;11.574;2022-10-28T22:17:05;16.90;99.90
13659;DHT22;6902;52.158;11.574;2022-10-28T22:19:32;16.80;99.90
13659;DHT22;6902;52.158;11.574;2022-10-28T22:21:59;16.80;99.90
13659;DHT22;6902;52.158;11.574;2022-10-28T22:24:26;16.70;99.90
13659;DHT22;6902;52.158;11.574;2022-10-28T22:26:53;16.60;99.90
13659;DHT22;6902;52.158;11.574;2022-10-28T22:29:22;16.60;99.90
13659;DHT22;6902;52.158;11.574;2022-10-28T22:31:49;16.60;99.90
13659;DHT22;6902;52.158;11.574;2022-10-28T22:34:16;16.60;99.90
13659;DHT22;6902;52.158;11.574;2022-10-28T22:36:43;16.60;99.90
13659;DHT22;6902;52.158;11.574;2022-10-28T22:39:12;16.60;99.90
13659;DHT22;6902;52.158;11.574;2022-10-28T22:41:39;16.60;99.90
13659;DHT22;6902;52.158;11.574;2022-10-28T22:44:06;16.60;99.90
13659;DHT22;6902;52.158;11.574;2022-10-28T22:46:35;16.60;99.90
13659;DHT22;6902;52.158;11.574;2022-10-28T22:49:02;16.70;99.90
13659;DHT22;6902;52.158;11.574;2022-10-28T22:51:29;16.80;99.90
13659;DHT22;6902;52.158;11.574;2022-10-28T22:53:57;16.80;99.90
13659;DHT22;6902;52.158;11.574;2022-10-28T22:56:24;16.80;99.90
13659;DHT22;6902;52.158;11.574;2022-10-28T22:58:53;16.90;99.90
13659;DHT22;6902;52.158;11.574;2022-10-28T23:01:21;16.90;99.90
13659;DHT22;6902;52.158;11.574;2022-10-28T23:03:51;16.90;99.90
13659;DHT22;6902;52.158;11.574;2022-10-28T23:06:20;16.90;99.90
13659;DHT22;6902;52.158;11.574;2022-10-28T23:08:48;16.90;99.90
13659;DHT22;6902;52.158;11.574;2022-10-28T23:11:16;16.90;99.90
13659;DHT22;6902;52.158;11.574;2022-10-28T23:13:44;16.90;99.90
13659;DHT22;6902;52.158;11.574;2022-10-28T23:16:13;16.90;99.90
13659;DHT22;6902;52.158;11.574;2022-10-28T23:18:42;17.00;99.90
13659;DHT22;6902;52.158;11.574;2022-10-28T23:21:13;17.00;99.90
13659;DHT22;6902;52.158;11.574;2022-10-28T23:23:41;17.00;99.90
13659;DHT22;6902;52.158;11.574;2022-10-28T23:26:11;17.00;99.90
13659;DHT22;6902;52.158;11.574;2022-10-28T23:28:39;17.10;99.90
13659;DHT22;6902;52.158;11.574;2022-10-28T23:31:08;17.10;99.90
13659;DHT22;6902;52.158;11.574;2022-10-28T23:33:38;17.10;99.90
13659;DHT22;6902;52.158;11.574;2022-10-28T23:36:05;17.00;99.90
13659;DHT22;6902;52.158;11.574;2022-10-28T23:38:33;17.00;99.90
13659;DHT22;6902;52.158;11.574;2022-10-28T23:41:02;17.00;99.90
13659;DHT22;6902;52.158;11.574;2022-10-28T23:43:30;17.00;99.90
13659;DHT22;6902;52.158;11.574;2022-10-28T23:45:58;17.00;99.90
13659;DHT22;6902;52.158;11.574;2022-10-28T23:48:26;16.90;99.90
13659;DHT22;6902;52.158;11.574;2022-10-28T23:50:54;16.90;99.90
13659;DHT22;6902;52.158;11.574;2022-10-28T23:53:22;16.80;99.90
13659;DHT22;6902;52.158;11.574;2022-10-28T23:55:51;16.80;99.90
13659;DHT22;6902;52.158;11.574;2022-10-28T23:58:19;16.80;99.90
